sensor_id;sensor_type;location;lat;lon;timestamp;P1;durP1;ratioP1;P2;durP2;ratioP2
25207;SDS011;13153;52.316;21.166;2023-06-14T00:02:15;11.75;;;7.68;;
25207;SDS011;13153;52.316;21.166;2023-06-14T00:04:40;11.40;;;7.90;;
25207;SDS011;13153;52.316;21.166;2023-06-14T00:07:06;17.88;;;7.88;;
25207;SDS011;13153;52.316;21.166;2023-06-14T00:09:38;9.80;;;7.15;;
25207;SDS011;13153;52.316;21.166;2023-06-14T00:12:04;9.95;;;7.65;;
25207;SDS011;13153;52.316;21.166;2023-06-14T00:14:31;13.60;;;7.88;;
25207;SDS011;13153;52.316;21.166;2023-06-14T00:16:56;11.43;;;8.15;;
25207;SDS011;13153;52.316;21.166;2023-06-14T00:19:23;12.77;;;8.30;;
25207;SDS011;13153;52.316;21.166;2023-06-14T00:21:50;13.73;;;7.32;;
25207;SDS011;13153;52.316;21.166;2023-06-14T00:24:17;8.88;;;7.30;;
25207;SDS011;13153;52.316;21.166;2023-06-14T00:26:44;10.55;;;8.15;;
25207;SDS011;13153;52.316;21.166;2023-06-14T00:29:10;12.70;;;8.00;;
25207;SDS011;13153;52.316;21.166;2023-06-14T00:31:35;12.23;;;8.20;;
25207;SDS011;13153;52.316;21.166;2023-06-14T00:34:01;11.23;;;8.55;;
25207;SDS011;13153;52.316;21.166;2023-06-14T00:36:27;10.25;;;7.90;;
25207;SDS011;13153;52.316;21.166;2023-06-14T00:38:53;13.27;;;8.27;;
25207;SDS011;13153;52.316;21.166;2023-06-14T00:41:19;13.52;;;8.60;;
25207;SDS011;13153;52.316;21.166;2023-06-14T00:43:44;12.10;;;8.48;;
25207;SDS011;13153;52.316;21.166;2023-06-14T00:46:10;13.40;;;8.10;;
25207;SDS011;13153;52.316;21.166;2023-06-14T00:48:36;14.77;;;8.60;;
25207;SDS011;13153;52.316;21.166;2023-06-14T00:51:04;13.20;;;8.20;;
25207;SDS011;13153;52.316;21.166;2023-06-14T00:53:31;15.15;;;8.45;;
25207;SDS011;13153;52.316;21.166;2023-06-14T00:56:00;11.25;;;8.23;;
25207;SDS011;13153;52.316;21.166;2023-06-14T00:58:26;11.15;;;8.38;;
25207;SDS011;13153;52.316;21.166;2023-06-14T01:00:53;10.88;;;7.88;;
25207;SDS011;13153;52.316;21.166;2023-06-14T01:03:19;15.27;;;8.13;;
25207;SDS011;13153;52.316;21.166;2023-06-14T01:05:48;13.05;;;7.90;;
25207;SDS011;13153;52.316;21.166;2023-06-14T01:11:22;12.65;;;8.98;;
25207;SDS011;13153;52.316;21.166;2023-06-14T01:13:57;11.57;;;9.43;;
25207;SDS011;13153;52.316;21.166;2023-06-14T01:16:28;12.45;;;8.85;;
25207;SDS011;13153;52.316;21.166;2023-06-14T01:18:56;13.93;;;9.57;;
25207;SDS011;13153;52.316;21.166;2023-06-14T01:21:23;12.82;;;8.88;;
25207;SDS011;13153;52.316;21.166;2023-06-14T01:23:51;14.40;;;9.00;;
25207;SDS011;13153;52.316;21.166;2023-06-14T01:26:21;14.35;;;8.40;;
25207;SDS011;13153;52.316;21.166;2023-06-14T01:28:48;9.45;;;7.88;;
25207;SDS011;13153;52.316;21.166;2023-06-14T01:31:20;11.07;;;7.90;;
25207;SDS011;13153;52.316;21.166;2023-06-14T01:33:47;8.68;;;7.43;;
25207;SDS011;13153;52.316;21.166;2023-06-14T01:36:16;17.15;;;8.57;;
25207;SDS011;13153;52.316;21.166;2023-06-14T01:38:45;9.52;;;7.38;;
25207;SDS011;13153;52.316;21.166;2023-06-14T01:41:15;11.90;;;7.82;;
25207;SDS011;13153;52.316;21.166;2023-06-14T01:43:43;13.02;;;8.25;;
25207;SDS011;13153;52.316;21.166;2023-06-14T01:46:11;10.70;;;8.38;;
25207;SDS011;13153;52.316;21.166;2023-06-14T01:48:40;13.85;;;8.27;;
25207;SDS011;13153;52.316;21.166;2023-06-14T01:51:07;12.10;;;7.93;;
25207;SDS011;13153;52.316;21.166;2023-06-14T01:53:32;12.85;;;8.73;;
25207;SDS011;13153;52.316;21.166;2023-06-14T01:55:58;11.48;;;7.97;;
25207;SDS011;13153;52.316;21.166;2023-06-14T01:58:25;12.73;;;8.48;;
25207;SDS011;13153;52.316;21.166;2023-06-14T02:00:51;13.88;;;8.07;;
25207;SDS011;13153;52.316;21.166;2023-06-14T02:03:20;11.48;;;7.85;;
25207;SDS011;13153;52.316;21.166;2023-06-14T02:05:46;9.73;;;7.78;;
25207;SDS011;13153;52.316;21.166;2023-06-14T02:08:12;9.90;;;7.35;;
25207;SDS011;13153;52.316;21.166;2023-06-14T02:10:38;12.68;;;7.53;;
25207;SDS011;13153;52.316;21.166;2023-06-14T02:13:03;10.00;;;7.55;;
25207;SDS011;13153;52.316;21.166;2023-06-14T02:15:29;10.48;;;7.43;;
25207;SDS011;13153;52.316;21.166;2023-06-14T02:17:59;13.25;;;8.07;;
25207;SDS011;13153;52.316;21.166;2023-06-14T02:20:29;9.70;;;7.20;;
25207;SDS011;13153;52.316;21.166;2023-06-14T02:22:55;11.55;;;8.10;;
25207;SDS011;13153;52.316;21.166;2023-06-14T02:25:22;12.00;;;7.22;;
25207;SDS011;13153;52.316;21.166;2023-06-14T02:27:48;13.55;;;7.70;;
25207;SDS011;13153;52.316;21.166;2023-06-14T02:30:14;10.43;;;7.43;;
25207;SDS011;13153;52.316;21.166;2023-06-14T02:32:40;13.43;;;7.85;;
25207;SDS011;13153;52.316;21.166;2023-06-14T02:35:08;11.73;;;7.80;;
25207;SDS011;13153;52.316;21.166;2023-06-14T02:37:34;11.45;;;7.65;;
25207;SDS011;13153;52.316;21.166;2023-06-14T02:40:00;11.63;;;7.95;;
25207;SDS011;13153;52.316;21.166;2023-06-14T02:42:25;11.75;;;7.88;;
25207;SDS011;13153;52.316;21.166;2023-06-14T02:44:51;16.98;;;7.95;;
25207;SDS011;13153;52.316;21.166;2023-06-14T02:47:17;11.98;;;7.30;;
25207;SDS011;13153;52.316;21.166;2023-06-14T02:49:44;13.27;;;8.20;;
25207;SDS011;13153;52.316;21.166;2023-06-14T02:52:13;12.80;;;7.90;;
25207;SDS011;13153;52.316;21.166;2023-06-14T02:54:39;9.85;;;7.47;;
25207;SDS011;13153;52.316;21.166;2023-06-14T02:57:06;14.55;;;8.68;;
25207;SDS011;13153;52.316;21.166;2023-06-14T02:59:33;11.85;;;7.85;;
25207;SDS011;13153;52.316;21.166;2023-06-14T03:02:00;16.27;;;9.35;;
25207;SDS011;13153;52.316;21.166;2023-06-14T03:04:26;13.48;;;8.68;;
25207;SDS011;13153;52.316;21.166;2023-06-14T03:06:52;11.75;;;8.68;;
25207;SDS011;13153;52.316;21.166;2023-06-14T03:09:18;16.48;;;9.60;;
25207;SDS011;13153;52.316;21.166;2023-06-14T03:11:45;15.88;;;8.65;;
25207;SDS011;13153;52.316;21.166;2023-06-14T03:14:11;10.43;;;8.32;;
25207;SDS011;13153;52.316;21.166;2023-06-14T03:16:38;10.20;;;7.85;;
25207;SDS011;13153;52.316;21.166;2023-06-14T03:19:04;12.18;;;8.10;;
25207;SDS011;13153;52.316;21.166;2023-06-14T03:21:30;17.88;;;8.98;;
25207;SDS011;13153;52.316;21.166;2023-06-14T03:23:56;13.60;;;9.30;;
25207;SDS011;13153;52.316;21.166;2023-06-14T03:26:21;15.93;;;9.40;;
25207;SDS011;13153;52.316;21.166;2023-06-14T03:28:47;16.38;;;10.65;;
25207;SDS011;13153;52.316;21.166;2023-06-14T03:31:16;15.32;;;10.82;;
25207;SDS011;13153;52.316;21.166;2023-06-14T03:33:41;16.85;;;10.68;;
25207;SDS011;13153;52.316;21.166;2023-06-14T03:36:08;16.60;;;10.48;;
25207;SDS011;13153;52.316;21.166;2023-06-14T03:38:34;15.50;;;9.88;;
25207;SDS011;13153;52.316;21.166;2023-06-14T03:41:00;16.60;;;10.45;;
25207;SDS011;13153;52.316;21.166;2023-06-14T03:43:26;13.07;;;9.65;;
25207;SDS011;13153;52.316;21.166;2023-06-14T03:45:52;12.63;;;8.88;;
25207;SDS011;13153;52.316;21.166;2023-06-14T03:48:18;14.32;;;9.45;;
25207;SDS011;13153;52.316;21.166;2023-06-14T03:50:44;14.63;;;9.82;;
25207;SDS011;13153;52.316;21.166;2023-06-14T03:53:10;12.82;;;8.35;;
25207;SDS011;13153;52.316;21.166;2023-06-14T03:55:36;10.38;;;8.10;;
25207;SDS011;13153;52.316;21.166;2023-06-14T03:58:02;13.23;;;8.57;;
25207;SDS011;13153;52.316;21.166;2023-06-14T04:00:28;19.20;;;13.30;;
25207;SDS011;13153;52.316;21.166;2023-06-14T04:02:55;19.75;;;12.93;;
25207;SDS011;13153;52.316;21.166;2023-06-14T04:05:20;9.95;;;8.65;;
25207;SDS011;13153;52.316;21.166;2023-06-14T04:07:46;13.70;;;8.35;;
25207;SDS011;13153;52.316;21.166;2023-06-14T04:10:13;12.45;;;8.00;;
25207;SDS011;13153;52.316;21.166;2023-06-14T04:12:41;13.13;;;7.70;;
25207;SDS011;13153;52.316;21.166;2023-06-14T04:15:08;11.45;;;7.53;;
25207;SDS011;13153;52.316;21.166;2023-06-14T04:17:35;10.27;;;7.82;;
25207;SDS011;13153;52.316;21.166;2023-06-14T04:20:02;10.23;;;7.93;;
25207;SDS011;13153;52.316;21.166;2023-06-14T04:22:30;11.40;;;8.60;;
25207;SDS011;13153;52.316;21.166;2023-06-14T04:24:56;10.80;;;8.20;;
25207;SDS011;13153;52.316;21.166;2023-06-14T04:27:23;10.20;;;8.10;;
25207;SDS011;13153;52.316;21.166;2023-06-14T04:29:51;12.30;;;7.88;;
25207;SDS011;13153;52.316;21.166;2023-06-14T04:32:24;11.95;;;8.45;;
25207;SDS011;13153;52.316;21.166;2023-06-14T04:34:54;15.75;;;8.30;;
25207;SDS011;13153;52.316;21.166;2023-06-14T04:37:21;13.07;;;7.95;;
25207;SDS011;13153;52.316;21.166;2023-06-14T04:39:47;10.90;;;8.52;;
25207;SDS011;13153;52.316;21.166;2023-06-14T04:42:15;13.88;;;8.35;;
25207;SDS011;13153;52.316;21.166;2023-06-14T04:44:44;12.52;;;8.50;;
25207;SDS011;13153;52.316;21.166;2023-06-14T04:47:12;13.57;;;8.90;;
25207;SDS011;13153;52.316;21.166;2023-06-14T04:49:39;11.93;;;8.15;;
25207;SDS011;13153;52.316;21.166;2023-06-14T04:52:06;12.18;;;8.88;;
25207;SDS011;13153;52.316;21.166;2023-06-14T04:54:35;10.80;;;8.35;;
25207;SDS011;13153;52.316;21.166;2023-06-14T04:57:08;12.98;;;8.35;;
25207;SDS011;13153;52.316;21.166;2023-06-14T04:59:39;11.75;;;8.20;;
25207;SDS011;13153;52.316;21.166;2023-06-14T05:02:10;14.15;;;8.65;;
25207;SDS011;13153;52.316;21.166;2023-06-14T05:04:36;15.38;;;10.43;;
25207;SDS011;13153;52.316;21.166;2023-06-14T05:07:06;13.13;;;9.45;;
25207;SDS011;13153;52.316;21.166;2023-06-14T05:09:35;12.02;;;8.50;;
25207;SDS011;13153;52.316;21.166;2023-06-14T05:12:02;11.15;;;8.80;;
25207;SDS011;13153;52.316;21.166;2023-06-14T05:14:29;12.60;;;8.88;;
25207;SDS011;13153;52.316;21.166;2023-06-14T05:16:55;16.05;;;9.63;;
25207;SDS011;13153;52.316;21.166;2023-06-14T05:19:20;12.45;;;9.10;;
25207;SDS011;13153;52.316;21.166;2023-06-14T05:21:47;14.32;;;8.88;;
25207;SDS011;13153;52.316;21.166;2023-06-14T05:24:13;11.20;;;9.05;;
25207;SDS011;13153;52.316;21.166;2023-06-14T05:26:39;14.48;;;8.95;;
25207;SDS011;13153;52.316;21.166;2023-06-14T05:29:06;11.70;;;9.70;;
25207;SDS011;13153;52.316;21.166;2023-06-14T05:31:38;12.90;;;9.07;;
25207;SDS011;13153;52.316;21.166;2023-06-14T05:34:04;14.45;;;8.88;;
25207;SDS011;13153;52.316;21.166;2023-06-14T05:36:30;14.38;;;8.88;;
25207;SDS011;13153;52.316;21.166;2023-06-14T05:38:56;13.57;;;8.43;;
25207;SDS011;13153;52.316;21.166;2023-06-14T05:41:25;13.05;;;8.88;;
25207;SDS011;13153;52.316;21.166;2023-06-14T05:43:52;12.05;;;8.43;;
25207;SDS011;13153;52.316;21.166;2023-06-14T05:46:20;14.00;;;9.48;;
25207;SDS011;13153;52.316;21.166;2023-06-14T05:48:49;16.23;;;10.10;;
25207;SDS011;13153;52.316;21.166;2023-06-14T05:51:18;16.10;;;8.95;;
25207;SDS011;13153;52.316;21.166;2023-06-14T05:53:47;13.48;;;9.30;;
25207;SDS011;13153;52.316;21.166;2023-06-14T05:56:14;13.13;;;8.60;;
25207;SDS011;13153;52.316;21.166;2023-06-14T05:58:42;13.10;;;8.85;;
25207;SDS011;13153;52.316;21.166;2023-06-14T06:01:09;14.88;;;9.02;;
25207;SDS011;13153;52.316;21.166;2023-06-14T06:03:35;11.63;;;8.63;;
25207;SDS011;13153;52.316;21.166;2023-06-14T06:06:01;16.55;;;10.18;;
25207;SDS011;13153;52.316;21.166;2023-06-14T06:08:28;14.50;;;9.02;;
25207;SDS011;13153;52.316;21.166;2023-06-14T06:10:55;16.52;;;8.52;;
25207;SDS011;13153;52.316;21.166;2023-06-14T06:13:21;15.27;;;8.45;;
25207;SDS011;13153;52.316;21.166;2023-06-14T06:15:47;16.38;;;8.98;;
25207;SDS011;13153;52.316;21.166;2023-06-14T06:18:13;12.77;;;8.30;;
25207;SDS011;13153;52.316;21.166;2023-06-14T06:20:39;12.90;;;7.80;;
25207;SDS011;13153;52.316;21.166;2023-06-14T06:23:05;16.15;;;8.70;;
25207;SDS011;13153;52.316;21.166;2023-06-14T06:25:30;13.45;;;8.68;;
25207;SDS011;13153;52.316;21.166;2023-06-14T06:27:57;11.05;;;8.95;;
25207;SDS011;13153;52.316;21.166;2023-06-14T06:30:23;12.40;;;8.30;;
25207;SDS011;13153;52.316;21.166;2023-06-14T06:32:50;14.30;;;8.93;;
25207;SDS011;13153;52.316;21.166;2023-06-14T06:35:16;12.05;;;8.68;;
25207;SDS011;13153;52.316;21.166;2023-06-14T06:37:42;12.93;;;8.48;;
25207;SDS011;13153;52.316;21.166;2023-06-14T06:40:09;14.77;;;7.78;;
25207;SDS011;13153;52.316;21.166;2023-06-14T06:42:35;12.68;;;8.27;;
25207;SDS011;13153;52.316;21.166;2023-06-14T06:45:01;12.60;;;8.50;;
25207;SDS011;13153;52.316;21.166;2023-06-14T06:47:27;12.88;;;9.02;;
25207;SDS011;13153;52.316;21.166;2023-06-14T06:49:53;11.98;;;8.93;;
25207;SDS011;13153;52.316;21.166;2023-06-14T06:52:19;12.63;;;8.60;;
25207;SDS011;13153;52.316;21.166;2023-06-14T06:54:45;10.88;;;8.27;;
25207;SDS011;13153;52.316;21.166;2023-06-14T06:57:10;11.05;;;8.40;;
25207;SDS011;13153;52.316;21.166;2023-06-14T06:59:37;12.02;;;8.45;;
25207;SDS011;13153;52.316;21.166;2023-06-14T07:02:03;13.95;;;8.93;;
25207;SDS011;13153;52.316;21.166;2023-06-14T07:04:29;13.63;;;8.95;;
25207;SDS011;13153;52.316;21.166;2023-06-14T07:06:56;12.55;;;9.05;;
25207;SDS011;13153;52.316;21.166;2023-06-14T07:09:22;13.60;;;8.30;;
25207;SDS011;13153;52.316;21.166;2023-06-14T07:11:49;15.38;;;8.70;;
25207;SDS011;13153;52.316;21.166;2023-06-14T07:14:15;13.00;;;8.48;;
25207;SDS011;13153;52.316;21.166;2023-06-14T07:16:41;18.58;;;8.88;;
25207;SDS011;13153;52.316;21.166;2023-06-14T07:19:07;14.45;;;8.80;;
25207;SDS011;13153;52.316;21.166;2023-06-14T07:21:35;14.80;;;9.23;;
25207;SDS011;13153;52.316;21.166;2023-06-14T07:24:04;15.02;;;9.15;;
25207;SDS011;13153;52.316;21.166;2023-06-14T07:26:34;13.98;;;8.70;;
25207;SDS011;13153;52.316;21.166;2023-06-14T07:29:00;12.52;;;8.32;;
25207;SDS011;13153;52.316;21.166;2023-06-14T07:31:27;11.57;;;8.20;;
25207;SDS011;13153;52.316;21.166;2023-06-14T07:33:53;9.63;;;7.65;;
25207;SDS011;13153;52.316;21.166;2023-06-14T07:36:19;10.82;;;7.22;;
25207;SDS011;13153;52.316;21.166;2023-06-14T07:38:45;10.15;;;7.90;;
25207;SDS011;13153;52.316;21.166;2023-06-14T07:41:11;10.90;;;7.60;;
25207;SDS011;13153;52.316;21.166;2023-06-14T07:43:37;9.43;;;6.65;;
25207;SDS011;13153;52.316;21.166;2023-06-14T07:46:03;11.13;;;7.03;;
25207;SDS011;13153;52.316;21.166;2023-06-14T07:48:29;15.80;;;6.90;;
25207;SDS011;13153;52.316;21.166;2023-06-14T07:50:55;10.27;;;6.75;;
25207;SDS011;13153;52.316;21.166;2023-06-14T07:53:21;11.23;;;6.60;;
25207;SDS011;13153;52.316;21.166;2023-06-14T07:55:46;12.07;;;6.78;;
25207;SDS011;13153;52.316;21.166;2023-06-14T07:58:13;14.45;;;6.78;;
25207;SDS011;13153;52.316;21.166;2023-06-14T08:00:39;10.43;;;7.45;;
25207;SDS011;13153;52.316;21.166;2023-06-14T08:03:05;9.25;;;6.18;;
25207;SDS011;13153;52.316;21.166;2023-06-14T08:05:30;12.40;;;5.50;;
25207;SDS011;13153;52.316;21.166;2023-06-14T08:07:56;12.10;;;6.38;;
25207;SDS011;13153;52.316;21.166;2023-06-14T08:10:22;14.70;;;6.85;;
25207;SDS011;13153;52.316;21.166;2023-06-14T08:12:48;13.65;;;5.85;;
25207;SDS011;13153;52.316;21.166;2023-06-14T08:15:17;11.80;;;5.50;;
25207;SDS011;13153;52.316;21.166;2023-06-14T08:17:43;9.90;;;5.88;;
25207;SDS011;13153;52.316;21.166;2023-06-14T08:20:10;9.82;;;5.57;;
25207;SDS011;13153;52.316;21.166;2023-06-14T08:22:38;9.70;;;5.80;;
25207;SDS011;13153;52.316;21.166;2023-06-14T08:25:07;9.65;;;5.20;;
25207;SDS011;13153;52.316;21.166;2023-06-14T08:27:34;10.07;;;5.38;;
25207;SDS011;13153;52.316;21.166;2023-06-14T08:30:00;9.52;;;5.57;;
25207;SDS011;13153;52.316;21.166;2023-06-14T08:32:27;11.18;;;5.32;;
25207;SDS011;13153;52.316;21.166;2023-06-14T08:34:53;7.25;;;5.15;;
25207;SDS011;13153;52.316;21.166;2023-06-14T08:37:19;13.73;;;5.35;;
25207;SDS011;13153;52.316;21.166;2023-06-14T08:39:45;9.25;;;5.40;;
25207;SDS011;13153;52.316;21.166;2023-06-14T08:42:11;9.18;;;4.93;;
25207;SDS011;13153;52.316;21.166;2023-06-14T08:44:39;8.48;;;4.88;;
25207;SDS011;13153;52.316;21.166;2023-06-14T08:47:05;8.50;;;4.85;;
25207;SDS011;13153;52.316;21.166;2023-06-14T08:49:35;9.57;;;4.55;;
25207;SDS011;13153;52.316;21.166;2023-06-14T08:52:03;8.95;;;4.38;;
25207;SDS011;13153;52.316;21.166;2023-06-14T08:54:35;7.78;;;4.18;;
25207;SDS011;13153;52.316;21.166;2023-06-14T08:57:08;16.65;;;5.22;;
25207;SDS011;13153;52.316;21.166;2023-06-14T08:59:42;11.20;;;4.93;;
25207;SDS011;13153;52.316;21.166;2023-06-14T09:02:17;10.13;;;4.70;;
25207;SDS011;13153;52.316;21.166;2023-06-14T09:04:44;8.73;;;4.70;;
25207;SDS011;13153;52.316;21.166;2023-06-14T09:07:11;9.57;;;5.47;;
25207;SDS011;13153;52.316;21.166;2023-06-14T09:09:41;10.40;;;5.97;;
25207;SDS011;13153;52.316;21.166;2023-06-14T09:12:10;9.95;;;6.43;;
25207;SDS011;13153;52.316;21.166;2023-06-14T09:14:37;10.65;;;6.93;;
25207;SDS011;13153;52.316;21.166;2023-06-14T09:17:05;16.20;;;8.07;;
25207;SDS011;13153;52.316;21.166;2023-06-14T09:19:31;12.73;;;7.75;;
25207;SDS011;13153;52.316;21.166;2023-06-14T09:21:58;14.80;;;7.25;;
25207;SDS011;13153;52.316;21.166;2023-06-14T09:24:25;14.05;;;7.32;;
25207;SDS011;13153;52.316;21.166;2023-06-14T09:26:51;12.27;;;7.78;;
25207;SDS011;13153;52.316;21.166;2023-06-14T09:29:20;14.10;;;7.00;;
25207;SDS011;13153;52.316;21.166;2023-06-14T09:31:46;9.05;;;6.60;;
25207;SDS011;13153;52.316;21.166;2023-06-14T09:34:12;7.82;;;6.28;;
25207;SDS011;13153;52.316;21.166;2023-06-14T09:36:39;13.40;;;6.90;;
25207;SDS011;13153;52.316;21.166;2023-06-14T09:39:07;12.93;;;6.72;;
25207;SDS011;13153;52.316;21.166;2023-06-14T09:44:05;9.75;;;6.32;;
25207;SDS011;13153;52.316;21.166;2023-06-14T09:46:33;9.30;;;5.85;;
25207;SDS011;13153;52.316;21.166;2023-06-14T09:49:01;11.98;;;5.22;;
25207;SDS011;13153;52.316;21.166;2023-06-14T09:51:28;9.93;;;4.88;;
25207;SDS011;13153;52.316;21.166;2023-06-14T09:53:57;10.15;;;4.85;;
25207;SDS011;13153;52.316;21.166;2023-06-14T09:56:30;12.77;;;5.18;;
25207;SDS011;13153;52.316;21.166;2023-06-14T09:59:09;9.65;;;5.18;;
25207;SDS011;13153;52.316;21.166;2023-06-14T10:01:41;10.23;;;4.97;;
25207;SDS011;13153;52.316;21.166;2023-06-14T10:04:09;9.13;;;5.05;;
25207;SDS011;13153;52.316;21.166;2023-06-14T10:06:41;7.88;;;4.60;;
25207;SDS011;13153;52.316;21.166;2023-06-14T10:09:13;9.18;;;4.63;;
25207;SDS011;13153;52.316;21.166;2023-06-14T10:11:39;6.38;;;4.03;;
25207;SDS011;13153;52.316;21.166;2023-06-14T10:14:10;7.50;;;3.95;;
25207;SDS011;13153;52.316;21.166;2023-06-14T10:16:42;7.55;;;4.53;;
25207;SDS011;13153;52.316;21.166;2023-06-14T10:19:27;7.00;;;4.38;;
25207;SDS011;13153;52.316;21.166;2023-06-14T10:22:16;7.70;;;4.57;;
25207;SDS011;13153;52.316;21.166;2023-06-14T10:24:59;6.90;;;4.30;;
25207;SDS011;13153;52.316;21.166;2023-06-14T10:27:26;9.20;;;4.40;;
25207;SDS011;13153;52.316;21.166;2023-06-14T10:32:24;17.23;;;5.30;;
25207;SDS011;13153;52.316;21.166;2023-06-14T10:34:53;5.82;;;4.30;;
25207;SDS011;13153;52.316;21.166;2023-06-14T10:37:30;8.43;;;4.40;;
25207;SDS011;13153;52.316;21.166;2023-06-14T10:39:56;7.32;;;4.28;;
25207;SDS011;13153;52.316;21.166;2023-06-14T10:42:23;9.77;;;5.00;;
25207;SDS011;13153;52.316;21.166;2023-06-14T10:44:57;7.95;;;5.00;;
25207;SDS011;13153;52.316;21.166;2023-06-14T10:47:30;16.27;;;5.32;;
25207;SDS011;13153;52.316;21.166;2023-06-14T10:52:40;14.57;;;4.32;;
25207;SDS011;13153;52.316;21.166;2023-06-14T10:55:12;7.22;;;4.10;;
25207;SDS011;13153;52.316;21.166;2023-06-14T10:57:50;11.05;;;4.15;;
25207;SDS011;13153;52.316;21.166;2023-06-14T11:00:22;11.82;;;4.20;;
25207;SDS011;13153;52.316;21.166;2023-06-14T11:06:15;13.00;;;4.05;;
25207;SDS011;13153;52.316;21.166;2023-06-14T11:08:56;8.23;;;3.40;;
25207;SDS011;13153;52.316;21.166;2023-06-14T11:11:51;7.22;;;3.97;;
25207;SDS011;13153;52.316;21.166;2023-06-14T11:14:22;10.25;;;4.25;;
25207;SDS011;13153;52.316;21.166;2023-06-14T11:16:48;8.00;;;3.60;;
25207;SDS011;13153;52.316;21.166;2023-06-14T11:19:15;12.05;;;4.07;;
25207;SDS011;13153;52.316;21.166;2023-06-14T11:21:42;6.22;;;3.67;;
25207;SDS011;13153;52.316;21.166;2023-06-14T11:24:12;5.68;;;3.10;;
25207;SDS011;13153;52.316;21.166;2023-06-14T11:26:39;6.80;;;3.20;;
25207;SDS011;13153;52.316;21.166;2023-06-14T11:29:05;5.18;;;3.25;;
25207;SDS011;13153;52.316;21.166;2023-06-14T11:31:31;6.03;;;3.20;;
25207;SDS011;13153;52.316;21.166;2023-06-14T11:33:58;7.25;;;3.13;;
25207;SDS011;13153;52.316;21.166;2023-06-14T11:36:29;7.32;;;3.35;;
25207;SDS011;13153;52.316;21.166;2023-06-14T11:38:59;7.13;;;3.42;;
25207;SDS011;13153;52.316;21.166;2023-06-14T11:41:37;4.50;;;3.15;;
25207;SDS011;13153;52.316;21.166;2023-06-14T11:44:10;4.20;;;3.30;;
25207;SDS011;13153;52.316;21.166;2023-06-14T11:46:37;7.63;;;3.50;;
25207;SDS011;13153;52.316;21.166;2023-06-14T11:49:03;7.38;;;3.50;;
25207;SDS011;13153;52.316;21.166;2023-06-14T11:51:32;12.82;;;3.65;;
25207;SDS011;13153;52.316;21.166;2023-06-14T11:54:00;9.23;;;3.60;;
25207;SDS011;13153;52.316;21.166;2023-06-14T11:56:28;8.88;;;3.25;;
25207;SDS011;13153;52.316;21.166;2023-06-14T11:58:56;3.70;;;3.03;;
25207;SDS011;13153;52.316;21.166;2023-06-14T12:01:23;4.95;;;3.30;;
25207;SDS011;13153;52.316;21.166;2023-06-14T12:03:53;4.72;;;3.40;;
25207;SDS011;13153;52.316;21.166;2023-06-14T12:06:30;8.18;;;3.85;;
25207;SDS011;13153;52.316;21.166;2023-06-14T12:09:04;6.53;;;4.20;;
25207;SDS011;13153;52.316;21.166;2023-06-14T12:11:35;7.10;;;4.28;;
25207;SDS011;13153;52.316;21.166;2023-06-14T12:14:05;9.10;;;4.57;;
25207;SDS011;13153;52.316;21.166;2023-06-14T12:16:32;6.75;;;3.83;;
25207;SDS011;13153;52.316;21.166;2023-06-14T12:19:15;6.25;;;3.63;;
25207;SDS011;13153;52.316;21.166;2023-06-14T12:21:42;7.18;;;3.40;;
25207;SDS011;13153;52.316;21.166;2023-06-14T12:24:13;7.78;;;3.72;;
25207;SDS011;13153;52.316;21.166;2023-06-14T12:26:40;5.50;;;3.00;;
25207;SDS011;13153;52.316;21.166;2023-06-14T12:29:07;8.63;;;2.67;;
25207;SDS011;13153;52.316;21.166;2023-06-14T12:31:33;5.68;;;2.40;;
25207;SDS011;13153;52.316;21.166;2023-06-14T12:33:59;6.30;;;2.60;;
25207;SDS011;13153;52.316;21.166;2023-06-14T12:36:25;6.78;;;2.55;;
25207;SDS011;13153;52.316;21.166;2023-06-14T12:38:51;8.52;;;2.58;;
25207;SDS011;13153;52.316;21.166;2023-06-14T12:41:22;7.90;;;2.38;;
25207;SDS011;13153;52.316;21.166;2023-06-14T12:43:48;7.32;;;3.08;;
25207;SDS011;13153;52.316;21.166;2023-06-14T12:46:13;5.90;;;2.72;;
25207;SDS011;13153;52.316;21.166;2023-06-14T12:48:39;4.35;;;2.80;;
25207;SDS011;13153;52.316;21.166;2023-06-14T12:51:05;5.93;;;3.17;;
25207;SDS011;13153;52.316;21.166;2023-06-14T12:53:31;4.88;;;2.97;;
25207;SDS011;13153;52.316;21.166;2023-06-14T12:55:57;6.25;;;3.28;;
25207;SDS011;13153;52.316;21.166;2023-06-14T12:58:23;4.30;;;2.85;;
25207;SDS011;13153;52.316;21.166;2023-06-14T13:00:48;4.85;;;2.80;;
25207;SDS011;13153;52.316;21.166;2023-06-14T13:03:15;3.97;;;2.97;;
25207;SDS011;13153;52.316;21.166;2023-06-14T13:05:41;4.78;;;2.80;;
25207;SDS011;13153;52.316;21.166;2023-06-14T13:08:08;6.47;;;2.58;;
25207;SDS011;13153;52.316;21.166;2023-06-14T13:10:34;4.78;;;2.53;;
25207;SDS011;13153;52.316;21.166;2023-06-14T13:12:59;3.03;;;2.30;;
25207;SDS011;13153;52.316;21.166;2023-06-14T13:15:26;4.50;;;2.47;;
25207;SDS011;13153;52.316;21.166;2023-06-14T13:17:52;6.97;;;3.20;;
25207;SDS011;13153;52.316;21.166;2023-06-14T13:20:18;4.50;;;2.50;;
25207;SDS011;13153;52.316;21.166;2023-06-14T13:22:44;4.63;;;2.72;;
25207;SDS011;13153;52.316;21.166;2023-06-14T13:25:10;4.53;;;2.95;;
25207;SDS011;13153;52.316;21.166;2023-06-14T13:27:36;6.15;;;2.65;;
25207;SDS011;13153;52.316;21.166;2023-06-14T13:30:02;5.65;;;2.88;;
25207;SDS011;13153;52.316;21.166;2023-06-14T13:32:30;6.03;;;3.20;;
25207;SDS011;13153;52.316;21.166;2023-06-14T13:34:56;5.75;;;3.08;;
25207;SDS011;13153;52.316;21.166;2023-06-14T13:37:22;7.03;;;2.90;;
25207;SDS011;13153;52.316;21.166;2023-06-14T13:39:48;5.05;;;2.90;;
25207;SDS011;13153;52.316;21.166;2023-06-14T13:42:14;10.38;;;3.10;;
25207;SDS011;13153;52.316;21.166;2023-06-14T13:44:40;5.45;;;2.47;;
25207;SDS011;13153;52.316;21.166;2023-06-14T13:47:06;3.58;;;2.65;;
25207;SDS011;13153;52.316;21.166;2023-06-14T13:49:32;5.97;;;3.22;;
25207;SDS011;13153;52.316;21.166;2023-06-14T13:52:00;6.40;;;3.00;;
25207;SDS011;13153;52.316;21.166;2023-06-14T13:54:26;5.32;;;2.90;;
25207;SDS011;13153;52.316;21.166;2023-06-14T13:56:52;4.38;;;2.83;;
25207;SDS011;13153;52.316;21.166;2023-06-14T13:59:18;9.63;;;3.33;;
25207;SDS011;13153;52.316;21.166;2023-06-14T14:01:44;4.35;;;3.03;;
25207;SDS011;13153;52.316;21.166;2023-06-14T14:04:10;4.55;;;3.00;;
25207;SDS011;13153;52.316;21.166;2023-06-14T14:06:36;8.35;;;3.45;;
25207;SDS011;13153;52.316;21.166;2023-06-14T14:09:02;6.47;;;2.92;;
25207;SDS011;13153;52.316;21.166;2023-06-14T14:11:28;4.65;;;3.03;;
25207;SDS011;13153;52.316;21.166;2023-06-14T14:13:58;5.15;;;2.90;;
25207;SDS011;13153;52.316;21.166;2023-06-14T14:16:24;7.60;;;3.17;;
25207;SDS011;13153;52.316;21.166;2023-06-14T14:18:50;3.33;;;2.78;;
25207;SDS011;13153;52.316;21.166;2023-06-14T14:21:16;6.35;;;2.65;;
25207;SDS011;13153;52.316;21.166;2023-06-14T14:23:42;5.82;;;3.10;;
25207;SDS011;13153;52.316;21.166;2023-06-14T14:26:09;4.80;;;2.83;;
25207;SDS011;13153;52.316;21.166;2023-06-14T14:28:34;5.90;;;2.95;;
25207;SDS011;13153;52.316;21.166;2023-06-14T14:31:01;12.98;;;3.40;;
25207;SDS011;13153;52.316;21.166;2023-06-14T14:33:26;6.15;;;2.80;;
25207;SDS011;13153;52.316;21.166;2023-06-14T14:35:52;5.80;;;2.75;;
25207;SDS011;13153;52.316;21.166;2023-06-14T14:38:18;7.65;;;2.90;;
25207;SDS011;13153;52.316;21.166;2023-06-14T14:40:44;5.40;;;3.10;;
25207;SDS011;13153;52.316;21.166;2023-06-14T14:43:10;6.22;;;3.10;;